Time;durP1;ratioP1;P1;durP2;ratioP2;P2;SDS_P1;SDS_P2;PMS_P1;PMS_P2;Temp;Humidity;BMP_temperature;BMP_pressure;BME280_temperature;BME280_humidity;BME280_pressure;Samples;Min_cycle;Max_cycle;Signal;HPM_P1;HPM_P2
2021/05/30 00:01:55;;;;;;;;;9.25;9.25;;;;;16.48;44.43;102069.03;5050943;28;51175;-48
2021/05/30 00:04:21;;;;;;;;;9.50;9.50;;;;;16.45;44.97;102076.81;5046325;28;51197;-49
2021/05/30 00:06:47;;;;;;;;;10.00;10.00;;;;;16.39;44.76;102060.00;5049422;28;51879;-48
2021/05/30 00:09:14;;;;;;;;;11.00;10.00;;;;;16.36;45.15;102058.97;5052065;28;51109;-48
2021/05/30 00:11:40;;;;;;;;;10.00;10.00;;;;;16.30;45.32;102069.22;5052935;28;50990;-51
2021/05/30 00:14:05;;;;;;;;;11.25;11.25;;;;;16.26;46.04;102063.00;5055465;28;50922;-48
2021/05/30 00:16:34;;;;;;;;;10.00;10.00;;;;;16.22;45.54;102067.19;5054881;28;51280;-50
2021/05/30 00:19:01;;;;;;;;;11.50;11.50;;;;;16.18;46.06;102060.06;5047849;28;51151;-49
2021/05/30 00:21:27;;;;;;;;;13.00;12.25;;;;;16.12;45.99;102065.97;5055030;28;51049;-48
2021/05/30 00:23:53;;;;;;;;;11.00;11.00;;;;;16.08;46.35;102069.28;5054857;28;51134;-47
2021/05/30 00:26:18;;;;;;;;;13.00;12.25;;;;;16.01;46.23;102054.13;5054299;28;51097;-48
2021/05/30 00:28:44;;;;;;;;;12.75;12.50;;;;;15.99;46.65;102063.69;5054224;28;51215;-48
2021/05/30 00:31:09;;;;;;;;;12.75;12.75;;;;;15.96;46.85;102068.78;5054077;28;51219;-48
2021/05/30 00:33:35;;;;;;;;;13.00;12.00;;;;;15.92;46.71;102061.59;5068031;28;51261;-50
2021/05/30 00:36:00;;;;;;;;;13.25;13.00;;;;;15.87;47.09;102074.53;5040172;28;52733;-50
2021/05/30 00:38:25;;;;;;;;;11.00;10.75;;;;;15.85;46.76;102069.22;5052315;28;51227;-47
2021/05/30 00:40:54;;;;;;;;;12.25;11.75;;;;;15.83;47.83;102067.38;5037781;28;52113;-48
2021/05/30 00:43:20;;;;;;;;;13.00;12.75;;;;;15.79;47.33;102078.56;5053151;28;51127;-49
2021/05/30 00:45:48;;;;;;;;;14.50;14.50;;;;;15.74;47.62;102071.41;5049745;28;52964;-49
2021/05/30 00:48:13;;;;;;;;;14.50;13.75;;;;;15.70;47.88;102060.75;5056728;28;51026;-50
2021/05/30 00:50:38;;;;;;;;;13.00;13.00;;;;;15.67;47.87;102071.09;5034805;28;50899;-51
2021/05/30 00:53:06;;;;;;;;;14.25;12.50;;;;;15.64;47.98;102065.72;5046354;28;51283;-49
2021/05/30 00:55:31;;;;;;;;;14.00;14.00;;;;;15.61;48.06;102066.47;5047481;28;51931;-49
2021/05/30 00:57:56;;;;;;;;;14.00;13.50;;;;;15.57;48.46;102070.69;5040929;28;50909;-49
2021/05/30 01:00:22;;;;;;;;;13.00;12.75;;;;;15.55;48.41;102067.13;5048544;28;51129;-48
2021/05/30 01:02:47;;;;;;;;;12.75;12.00;;;;;15.52;48.71;102061.75;5045136;28;50969;-48
2021/05/30 01:05:13;;;;;;;;;12.00;12.00;;;;;15.49;49.71;102066.84;5053139;28;52388;-49
2021/05/30 01:07:41;;;;;;;;;12.25;12.25;;;;;15.46;49.25;102056.28;5040683;28;51169;-50
2021/05/30 01:10:29;;;;;;;;;15.25;14.75;;;;;15.42;49.34;102054.34;5053117;28;51049;-50
2021/05/30 01:12:56;;;;;;;;;14.00;14.00;;;;;15.38;49.41;102068.13;5052093;28;51421;-48
2021/05/30 01:15:22;;;;;;;;;20.50;19.50;;;;;15.34;49.29;102051.41;5051957;28;51996;-49
2021/05/30 01:17:48;;;;;;;;;28.00;28.00;;;;;15.31;49.55;102057.38;5051420;28;51174;-50
2021/05/30 01:20:16;;;;;;;;;18.25;17.00;;;;;15.27;49.69;102055.50;5054377;27;51199;-49
2021/05/30 01:22:44;;;;;;;;;19.00;17.25;;;;;15.27;49.82;102050.25;5053709;28;51233;-49
2021/05/30 01:25:11;;;;;;;;;16.75;16.00;;;;;15.24;50.21;102052.75;5054228;28;51062;-47
2021/05/30 01:27:37;;;;;;;;;20.50;20.25;;;;;15.21;50.23;102040.41;5051727;28;51255;-49
2021/05/30 01:30:05;;;;;;;;;16.50;16.25;;;;;15.20;49.95;102049.09;5050301;28;51005;-50
2021/05/30 01:32:31;;;;;;;;;17.75;17.75;;;;;15.15;50.59;102055.88;5053766;28;51337;-50
2021/05/30 01:34:56;;;;;;;;;18.25;16.00;;;;;15.14;50.88;102047.94;5053184;28;52857;-48
2021/05/30 01:37:22;;;;;;;;;16.00;14.50;;;;;15.14;51.09;102047.94;5054052;28;50962;-49
2021/05/30 01:39:47;;;;;;;;;16.50;16.00;;;;;15.09;52.04;102056.47;5054286;28;51022;-49
2021/05/30 01:42:12;;;;;;;;;17.75;16.25;;;;;15.08;51.20;102052.09;5053922;28;51373;-49
2021/05/30 01:44:37;;;;;;;;;15.00;15.00;;;;;15.05;51.58;102038.84;5052670;28;51955;-49
2021/05/30 01:47:03;;;;;;;;;18.25;17.25;;;;;15.03;51.28;102045.72;5061613;28;50997;-49
2021/05/30 01:49:28;;;;;;;;;16.50;15.00;;;;;15.00;51.56;102045.63;5077334;27;50941;-49
2021/05/30 01:51:54;;;;;;;;;17.50;17.00;;;;;14.96;51.54;102038.47;5052819;28;51089;-47
2021/05/30 01:54:20;;;;;;;;;16.50;15.50;;;;;14.95;51.75;102047.13;5054158;28;50913;-47
2021/05/30 01:56:55;;;;;;;;;13.75;13.50;;;;;14.92;53.32;102036.53;5053791;28;50918;-47
2021/05/30 01:59:22;;;;;;;;;18.00;16.75;;;;;14.91;51.86;102042.59;5052914;28;50953;-47
2021/05/30 02:01:52;;;;;;;;;16.00;15.50;;;;;14.87;52.75;102040.66;5052822;28;51051;-49
2021/05/30 02:04:21;;;;;;;;;16.75;16.75;;;;;14.83;52.41;102043.13;5053756;28;51950;-47
2021/05/30 02:06:48;;;;;;;;;16.50;16.00;;;;;14.82;52.33;102040.44;5052293;28;50939;-49
2021/05/30 02:09:15;;;;;;;;;17.25;17.00;;;;;14.78;52.51;102049.00;5052226;28;51021;-48
2021/05/30 02:11:40;;;;;;;;;15.75;15.75;;;;;14.75;52.98;102054.06;5052125;28;51506;-47
2021/05/30 02:14:06;;;;;;;;;18.50;18.00;;;;;14.72;52.77;102053.91;5052098;28;52610;-47
2021/05/30 02:16:33;;;;;;;;;16.00;15.50;;;;;14.68;52.88;102051.19;5053249;28;51098;-48
2021/05/30 02:18:59;;;;;;;;;15.50;15.50;;;;;14.67;52.97;102056.34;5053612;28;50914;-48
2021/05/30 02:21:25;;;;;;;;;18.00;18.00;;;;;14.63;53.15;102057.00;5052773;28;50960;-48
2021/05/30 02:23:51;;;;;;;;;11.50;11.00;;;;;14.59;53.27;102058.56;5052730;28;51752;-50
2021/05/30 02:26:17;;;;;;;;;18.25;17.75;;;;;14.56;53.69;102059.31;5053672;28;50994;-49
2021/05/30 02:28:42;;;;;;;;;18.00;17.75;;;;;14.54;55.15;102058.38;5049443;28;51095;-48
2021/05/30 02:31:08;;;;;;;;;19.50;18.50;;;;;14.52;54.01;102062.66;5050480;28;50916;-50
2021/05/30 02:33:34;;;;;;;;;19.75;19.75;;;;;14.45;53.71;102047.50;5052745;28;51667;-50
2021/05/30 02:35:59;;;;;;;;;15.50;15.50;;;;;14.47;55.38;102055.41;5052845;28;51136;-50
2021/05/30 02:38:25;;;;;;;;;16.50;16.50;;;;;14.45;54.00;102052.72;5053373;28;50962;-48
2021/05/30 02:40:50;;;;;;;;;17.50;17.00;;;;;14.42;54.27;102055.19;5050569;28;51290;-49
2021/05/30 02:43:15;;;;;;;;;16.00;15.75;;;;;14.39;53.81;102055.06;5052165;28;52882;-48
2021/05/30 02:45:41;;;;;;;;;17.00;16.50;;;;;14.34;54.11;102049.59;5052878;28;50972;-50
2021/05/30 02:48:06;;;;;;;;;17.00;17.00;;;;;14.31;54.14;102058.19;5062673;28;51078;-49
2021/05/30 02:50:31;;;;;;;;;19.25;18.75;;;;;14.29;54.62;102059.84;5051851;28;51017;-48
2021/05/30 02:52:57;;;;;;;;;17.00;17.00;;;;;14.27;54.17;102061.47;5052688;28;51111;-49
2021/05/30 02:55:23;;;;;;;;;17.50;16.75;;;;;14.26;54.46;102058.78;5052400;28;51009;-50
2021/05/30 02:57:48;;;;;;;;;18.00;18.00;;;;;14.23;54.98;102062.16;5051850;28;51156;-49
2021/05/30 03:00:15;;;;;;;;;16.75;16.50;;;;;14.21;55.01;102061.22;5051622;28;51970;-48
2021/05/30 03:02:40;;;;;;;;;16.25;16.25;;;;;14.18;55.19;102068.88;5051391;28;51735;-49
2021/05/30 03:05:06;;;;;;;;;19.00;19.00;;;;;14.13;54.44;102055.63;5053067;28;50971;-49
2021/05/30 03:07:32;;;;;;;;;18.25;18.25;;;;;14.11;54.82;102066.81;5052703;28;50943;-48
2021/05/30 03:09:57;;;;;;;;;19.25;18.00;;;;;14.09;54.65;102061.53;5053098;28;50898;-48
2021/05/30 03:12:23;;;;;;;;;17.00;16.00;;;;;14.09;54.96;102071.06;5050883;28;51108;-48
2021/05/30 03:14:48;;;;;;;;;17.00;16.00;;;;;14.08;55.02;102069.28;5042906;28;51155;-48
2021/05/30 03:17:14;;;;;;;;;18.75;18.75;;;;;14.03;55.04;102074.25;5052444;28;50980;-50
2021/05/30 03:19:39;;;;;;;;;15.00;15.00;;;;;14.01;55.01;102073.31;5053106;28;51108;-48
2021/05/30 03:22:05;;;;;;;;;16.50;16.50;;;;;13.99;55.46;102081.06;5052484;28;51891;-49
2021/05/30 03:24:30;;;;;;;;;18.50;18.25;;;;;13.96;55.60;102075.72;5052836;28;50949;-49
2021/05/30 03:26:56;;;;;;;;;21.00;20.50;;;;;13.94;55.40;102081.66;5050742;28;51132;-48
2021/05/30 03:29:21;;;;;;;;;19.00;18.75;;;;;13.88;55.89;102074.44;5050032;28;51316;-48
2021/05/30 03:31:47;;;;;;;;;19.00;18.75;;;;;13.88;55.61;102075.31;5050945;28;51742;-48
2021/05/30 03:34:12;;;;;;;;;18.00;18.00;;;;;13.85;55.50;102076.88;5052246;28;51073;-49
2021/05/30 03:36:38;;;;;;;;;20.50;20.50;;;;;13.85;56.82;102087.34;5052475;28;51065;-47
2021/05/30 03:39:06;;;;;;;;;19.50;19.00;;;;;13.85;55.89;102084.72;5051297;28;50911;-48
2021/05/30 03:41:36;;;;;;;;;19.00;19.00;;;;;13.83;55.99;102088.97;5051663;28;52617;-48
2021/05/30 03:44:04;;;;;;;;;24.50;21.00;;;;;13.81;56.04;102090.59;5049749;28;51104;-49
2021/05/30 03:46:29;;;;;;;;;20.00;18.50;;;;;13.80;55.82;102091.44;5057164;28;50939;-48
2021/05/30 03:48:55;;;;;;;;;19.00;18.25;;;;;13.76;56.88;102087.78;5060063;27;50919;-48
2021/05/30 03:51:21;;;;;;;;;17.50;17.00;;;;;13.73;56.72;102093.75;5042389;28;51197;-49
2021/05/30 03:53:46;;;;;;;;;19.00;18.00;;;;;13.73;56.36;102093.75;5055729;28;50934;-48
2021/05/30 03:56:12;;;;;;;;;22.00;20.50;;;;;13.70;57.09;102087.47;5056054;28;50928;-48
2021/05/30 03:58:37;;;;;;;;;18.00;18.00;;;;;13.69;56.74;102091.81;5056153;28;51338;-47
2021/05/30 04:01:03;;;;;;;;;18.75;18.75;;;;;13.69;57.17;102083.06;5054111;28;51500;-48
2021/05/30 04:03:28;;;;;;;;;18.75;18.75;;;;;13.70;56.96;102090.97;5053527;28;51160;-49
2021/05/30 04:05:53;;;;;;;;;22.50;22.50;;;;;13.71;57.07;102086.66;5055633;28;50931;-48
2021/05/30 04:08:19;;;;;;;;;18.00;18.00;;;;;13.73;56.98;102092.84;5055992;28;51280;-47
2021/05/30 04:10:45;;;;;;;;;20.75;20.75;;;;;13.74;57.09;102086.78;5052364;28;52020;-47
2021/05/30 04:13:11;;;;;;;;;20.75;19.50;;;;;13.74;57.19;102079.88;5054114;28;51488;-50
2021/05/30 04:15:37;;;;;;;;;22.50;21.50;;;;;13.76;57.17;102083.44;5055311;28;51423;-51
2021/05/30 04:18:02;;;;;;;;;22.25;22.00;;;;;13.78;57.50;102081.81;5055780;28;51327;-49
2021/05/30 04:20:28;;;;;;;;;22.75;22.75;;;;;13.80;57.56;102083.59;5053267;28;52796;-48
2021/05/30 04:22:53;;;;;;;;;21.50;20.75;;;;;13.85;57.16;102090.84;5054931;28;50949;-50
2021/05/30 04:25:18;;;;;;;;;22.00;20.75;;;;;13.88;57.14;102092.72;5042338;28;51669;-49
2021/05/30 04:27:46;;;;;;;;;21.75;21.75;;;;;13.91;57.38;102087.63;5055273;28;51372;-46
2021/05/30 04:30:13;;;;;;;;;21.00;21.00;;;;;13.94;57.30;102093.00;5052986;28;51937;-52
2021/05/30 04:32:39;;;;;;;;;29.00;24.50;;;;;13.97;57.35;102087.94;5054725;28;51219;-49
2021/05/30 04:35:05;;;;;;;;;25.25;24.50;;;;;13.99;57.34;102088.03;5055416;28;51223;-51
2021/05/30 04:37:31;;;;;;;;;19.75;19.50;;;;;14.04;57.03;102095.25;5055689;28;51157;-50
2021/05/30 04:39:56;;;;;;;;;22.25;21.25;;;;;14.08;57.05;102088.47;5054471;28;51626;-48
2021/05/30 04:42:22;;;;;;;;;20.50;19.50;;;;;14.12;57.27;102087.75;5055198;28;51083;-48
2021/05/30 04:44:47;;;;;;;;;22.50;21.25;;;;;14.17;57.50;102086.31;5053896;28;51023;-49
2021/05/30 04:47:12;;;;;;;;;18.00;18.00;;;;;14.23;57.21;102093.50;5064091;28;51191;-50
2021/05/30 04:49:39;;;;;;;;;21.25;20.00;;;;;14.26;56.97;102088.44;5056998;27;51098;-49
2021/05/30 04:52:06;;;;;;;;;23.00;22.25;;;;;14.31;57.22;102088.66;5055184;28;50852;-50
2021/05/30 04:54:32;;;;;;;;;23.25;22.75;;;;;14.36;56.82;102092.41;5044375;28;51139;-50
2021/05/30 04:56:58;;;;;;;;;24.50;23.00;;;;;14.43;56.79;102093.59;5052155;28;51257;-49
2021/05/30 04:59:23;;;;;;;;;22.00;22.00;;;;;14.51;56.89;102089.59;5053312;28;53938;-50
2021/05/30 05:01:48;;;;;;;;;22.00;22.00;;;;;14.66;56.72;102085.88;5054705;28;51121;-48
2021/05/30 05:04:14;;;;;;;;;23.50;22.25;;;;;15.16;56.40;102090.75;5051219;28;51944;-49
2021/05/30 05:06:39;;;;;;;;;22.75;22.50;;;;;15.79;55.54;102089.03;5055066;28;51079;-48
2021/05/30 05:09:04;;;;;;;;;24.50;23.00;;;;;16.46;54.39;102091.69;5054705;28;52982;-49
2021/05/30 05:11:30;;;;;;;;;21.75;21.00;;;;;17.06;52.29;102091.31;5054784;28;51004;-47
2021/05/30 05:13:55;;;;;;;;;23.00;23.00;;;;;17.55;51.76;102090.34;5051884;28;51199;-48
2021/05/30 05:16:20;;;;;;;;;23.00;23.00;;;;;18.13;51.12;102087.91;5053270;28;51095;-48
2021/05/30 05:18:46;;;;;;;;;25.25;23.25;;;;;18.82;50.04;102092.56;5054574;28;51184;-49
2021/05/30 05:21:11;;;;;;;;;24.00;21.00;;;;;19.42;46.53;102090.66;5054823;28;50996;-49
2021/05/30 05:23:37;;;;;;;;;21.00;21.00;;;;;19.78;47.19;102084.56;5051771;28;51125;-49
2021/05/30 05:26:03;;;;;;;;;19.25;17.75;;;;;20.26;46.18;102082.16;5054481;28;51177;-50
2021/05/30 05:28:30;;;;;;;;;17.50;17.50;;;;;20.77;45.60;102079.72;5050729;28;52737;-51
2021/05/30 05:30:56;;;;;;;;;20.00;19.00;;;;;21.36;44.45;102079.94;5054108;28;51020;-50
2021/05/30 05:33:22;;;;;;;;;20.50;19.75;;;;;21.93;43.87;102087.06;5053077;28;51254;-46
2021/05/30 05:35:48;;;;;;;;;20.25;19.75;;;;;22.42;42.81;102076.28;5036334;28;51396;-48
2021/05/30 05:38:15;;;;;;;;;20.00;18.75;;;;;22.91;41.73;102083.97;5053997;28;51944;-51
2021/05/30 05:40:40;;;;;;;;;21.50;20.25;;;;;23.40;40.92;102076.53;5054344;28;51045;-50
2021/05/30 05:43:07;;;;;;;;;16.75;16.75;;;;;23.87;40.39;102083.09;5054353;28;51088;-49
2021/05/30 05:45:33;;;;;;;;;16.00;15.75;;;;;24.52;39.13;102077.28;5050793;28;51247;-50
2021/05/30 05:47:59;;;;;;;;;19.75;19.00;;;;;25.10;37.64;102074.81;5061719;28;52017;-50
2021/05/30 05:50:25;;;;;;;;;20.00;19.50;;;;;25.45;37.35;102068.66;5053982;28;51030;-51
2021/05/30 05:52:52;;;;;;;;;18.00;17.75;;;;;25.91;35.97;102077.47;5053935;28;51085;-50
2021/05/30 05:55:19;;;;;;;;;20.50;19.50;;;;;26.30;36.11;102075.66;5051869;28;51056;-51
2021/05/30 05:57:47;;;;;;;;;19.50;18.75;;;;;26.83;35.23;102072.72;5039807;28;51033;-49
2021/05/30 06:00:15;;;;;;;;;20.00;19.00;;;;;27.48;34.43;102067.84;5052470;28;51089;-50
2021/05/30 06:02:42;;;;;;;;;16.50;16.50;;;;;28.04;33.78;102064.66;5053798;28;50938;-48
2021/05/30 06:05:08;;;;;;;;;18.25;18.25;;;;;28.49;33.06;102073.94;5054059;28;51271;-50
2021/05/30 06:07:36;;;;;;;;;20.00;19.25;;;;;28.79;31.78;102067.28;5052637;28;51087;-48
2021/05/30 06:10:02;;;;;;;;;18.25;17.50;;;;;29.15;32.00;102068.56;5052642;28;51066;-50
2021/05/30 06:12:27;;;;;;;;;18.25;18.25;;;;;29.81;31.34;102066.53;5052329;28;51120;-51
2021/05/30 06:14:52;;;;;;;;;19.00;17.50;;;;;30.50;29.75;102076.81;5052454;28;51427;-49
2021/05/30 06:17:18;;;;;;;;;19.75;19.25;;;;;30.89;29.23;102083.13;5052563;28;51701;-49
2021/05/30 06:19:43;;;;;;;;;18.00;17.75;;;;;31.40;28.67;102072.97;5053865;28;51053;-49
2021/05/30 06:22:09;;;;;;;;;18.00;16.67;;;;;31.89;28.03;102064.53;5045543;28;50885;-48
2021/05/30 06:24:35;;;;;;;;;17.50;16.25;;;;;32.33;27.03;102067.75;5054170;28;51022;-50
2021/05/30 06:27:03;;;;;;;;;16.50;16.50;;;;;32.75;26.49;102073.69;5051114;28;52049;-50
2021/05/30 06:29:28;;;;;;;;;17.67;17.67;;;;;33.14;25.89;102075.16;5051779;28;51216;-50
2021/05/30 06:31:55;;;;;;;;;19.25;19.25;;;;;33.57;25.97;102080.88;5048405;28;51474;-50
2021/05/30 06:34:20;;;;;;;;;20.50;20.50;;;;;34.01;25.39;102072.13;5053917;28;51302;-51
2021/05/30 06:36:50;;;;;;;;;18.00;17.25;;;;;34.49;24.61;102077.56;5043625;28;52745;-51
2021/05/30 06:39:16;;;;;;;;;18.25;17.50;;;;;34.97;24.07;102077.47;5047833;28;51115;-48
2021/05/30 06:41:42;;;;;;;;;14.75;14.75;;;;;35.25;23.71;102080.84;5053579;28;51057;-49
2021/05/30 06:44:08;;;;;;;;;15.67;15.67;;;;;35.47;22.62;102084.38;5052209;28;51250;-49
2021/05/30 06:46:34;;;;;;;;;18.50;18.50;;;;;35.97;22.62;102078.63;5050469;28;51908;-48
2021/05/30 06:49:00;;;;;;;;;17.33;17.00;;;;;36.48;22.51;102083.50;5052790;28;51100;-48
2021/05/30 06:51:30;;;;;;;;;18.00;17.75;;;;;36.83;21.37;102082.75;5042944;28;51538;-48
2021/05/30 06:53:57;;;;;;;;;17.25;16.75;;;;;36.82;20.59;102081.00;5049795;28;51307;-48
2021/05/30 06:56:24;;;;;;;;;18.00;17.75;;;;;36.97;21.12;102076.66;5051574;28;51160;-50
2021/05/30 06:58:49;;;;;;;;;15.50;14.50;;;;;37.10;19.64;102079.63;5052049;28;51149;-48
2021/05/30 07:01:21;;;;;;;;;17.00;16.33;;;;;36.97;18.95;102073.97;5081126;27;51073;-49
2021/05/30 07:03:48;;;;;;;;;13.00;12.33;;;;;37.11;19.78;102075.94;5050902;28;51307;-48
2021/05/30 07:06:15;;;;;;;;;20.25;17.50;;;;;37.60;19.89;102077.09;5047954;28;52702;-49
2021/05/30 07:08:41;;;;;;;;;16.50;16.50;;;;;38.19;19.69;102080.28;5051461;28;51219;-49
2021/05/30 07:11:07;;;;;;;;;15.00;14.67;;;;;38.47;18.30;102086.84;5050348;28;51179;-47
2021/05/30 07:13:33;;;;;;;;;15.25;15.25;;;;;38.35;17.29;102084.81;5048791;28;51073;-49
2021/05/30 07:15:59;;;;;;;;;14.67;14.33;;;;;37.90;17.35;102084.56;5049951;28;51606;-49
2021/05/30 07:18:24;;;;;;;;;13.33;13.33;;;;;37.94;17.91;102084.31;5081136;27;51084;-50
2021/05/30 07:20:52;;;;;;;;;15.50;15.00;;;;;38.51;18.12;102087.53;5048417;28;51967;-49
2021/05/30 07:23:19;;;;;;;;;14.50;14.50;;;;;39.24;17.82;102094.22;5049287;28;51251;-48
2021/05/30 07:25:45;;;;;;;;;12.25;12.25;;;;;39.88;17.31;102093.09;5046160;28;51190;-48
2021/05/30 07:28:11;;;;;;;;;13.00;12.00;;;;;40.47;17.37;102084.91;5046064;28;51149;-49
2021/05/30 07:30:36;;;;;;;;;13.00;13.00;;;;;40.83;14.58;102083.41;5047350;28;51143;-49
2021/05/30 07:33:03;;;;;;;;;13.00;13.00;;;;;40.72;16.51;102077.81;5050031;28;51328;-51
2021/05/30 07:35:31;;;;;;;;;12.75;12.50;;;;;41.14;15.75;102078.63;5047245;28;53503;-48
2021/05/30 07:37:57;;;;;;;;;14.00;14.00;;;;;41.49;15.55;102076.28;5043229;28;51585;-48
2021/05/30 07:40:24;;;;;;;;;13.50;13.50;;;;;41.78;15.41;102068.78;5051833;28;51080;-50
2021/05/30 07:42:49;;;;;;;;;14.00;14.00;;;;;41.77;15.16;102071.63;5050571;28;51018;-52
2021/05/30 07:45:16;;;;;;;;;14.33;14.33;;;;;41.72;14.88;102072.78;5051192;28;51857;-50
2021/05/30 07:47:42;;;;;;;;;14.00;13.00;;;;;42.17;14.46;102071.47;5050368;28;52286;-49
2021/05/30 07:50:09;;;;;;;;;14.67;14.00;;;;;42.72;13.97;102068.31;5051250;28;51228;-51
2021/05/30 07:52:35;;;;;;;;;14.67;14.67;;;;;42.83;12.37;102074.84;5048575;28;51248;-49
2021/05/30 07:55:03;;;;;;;;;13.00;12.67;;;;;42.32;13.50;102076.78;5049561;28;51017;-49
2021/05/30 07:57:28;;;;;;;;;15.00;15.00;;;;;42.44;14.12;102073.13;5051068;28;51304;-49
2021/05/30 07:59:54;;;;;;;;;10.67;10.33;;;;;42.58;13.73;102069.34;5050331;28;51104;-49
2021/05/30 08:02:20;;;;;;;;;12.67;12.67;;;;;42.81;13.39;102066.75;5049948;28;51263;-49
2021/05/30 08:04:45;;;;;;;;;13.67;13.67;;;;;43.39;13.75;102063.19;5048493;28;51146;-49
2021/05/30 08:07:10;;;;;;;;;13.00;13.00;;;;;44.22;12.86;102062.09;5046056;28;51312;-49
2021/05/30 08:09:36;;;;;;;;;16.33;15.00;;;;;44.89;12.34;102070.25;5051583;28;51104;-52
2021/05/30 08:12:02;;;;;;;;;13.25;13.25;;;;;45.17;12.67;102067.88;5066860;28;51089;-50
2021/05/30 08:14:29;;;;;;;;;12.75;12.75;;;;;45.01;11.65;102065.59;5048983;28;52196;-50
2021/05/30 08:16:56;;;;;;;;;15.25;13.75;;;;;45.09;11.66;102065.81;5046264;28;51125;-50
2021/05/30 08:19:22;;;;;;;;;12.00;12.00;;;;;45.62;11.79;102061.25;5047074;28;51259;-49
2021/05/30 08:21:48;;;;;;;;;12.00;12.00;;;;;46.23;11.65;102066.78;5050600;28;51726;-49
2021/05/30 08:24:14;;;;;;;;;15.00;14.25;;;;;46.60;10.91;102070.72;5044889;28;52299;-51
2021/05/30 08:26:40;;;;;;;;;12.50;12.00;;;;;46.81;11.50;102064.25;5049629;28;51117;-49
2021/05/30 08:29:05;;;;;;;;;12.00;11.00;;;;;47.35;11.13;102063.72;5047045;28;51322;-50
2021/05/30 08:31:31;;;;;;;;;12.67;11.67;;;;;47.85;10.31;102061.69;5049626;28;51367;-50
2021/05/30 08:33:57;;;;;;;;;4.25;4.25;;;;;47.92;10.40;102059.19;5052484;28;51665;-49
2021/05/30 08:36:23;;;;;;;;;11.67;11.67;;;;;47.90;10.09;102056.59;5053992;28;51205;-49
2021/05/30 08:38:48;;;;;;;;;12.50;12.50;;;;;47.14;10.00;102048.31;5051225;28;52008;-49
2021/05/30 08:41:18;;;;;;;;;13.25;12.25;;;;;46.78;10.22;102056.31;5052353;28;51677;-51
2021/05/30 08:43:44;;;;;;;;;9.00;9.00;;;;;46.76;9.84;102052.84;5048254;28;51420;-51
2021/05/30 08:46:09;;;;;;;;;11.00;11.00;;;;;46.90;10.08;102046.91;5047680;28;51084;-51
2021/05/30 08:48:35;;;;;;;;;13.25;13.25;;;;;47.44;9.62;102045.50;5054661;28;51117;-51
2021/05/30 08:51:08;;;;;;;;;11.67;11.67;;;;;47.53;8.92;102040.97;5044261;28;51021;-51
2021/05/30 08:53:37;;;;;;;;;10.50;10.50;;;;;46.86;9.84;102030.84;5053045;28;51744;-49
2021/05/30 08:56:06;;;;;;;;;12.50;12.50;;;;;46.90;10.04;102033.16;5044066;28;51117;-52
2021/05/30 08:58:41;;;;;;;;;12.00;11.75;;;;;47.64;9.86;102035.28;5051882;28;51196;-54
2021/05/30 09:01:16;;;;;;;;;11.33;11.33;;;;;47.77;9.64;102034.91;5041514;28;50950;-50
2021/05/30 09:03:53;;;;;;;;;11.75;11.75;;;;;47.95;8.64;102034.13;5050877;28;51944;-50
2021/05/30 09:06:21;;;;;;;;;11.25;11.25;;;;;47.81;8.65;102027.25;5054371;27;51331;-49
2021/05/30 09:08:49;;;;;;;;;12.25;11.75;;;;;47.77;9.37;102028.53;5049593;28;51061;-48
2021/05/30 09:11:46;;;;;;;;;16.00;16.00;;;;;47.89;8.03;102021.84;5045332;28;51216;-49
2021/05/30 09:14:17;;;;;;;;;13.75;13.25;;;;;48.05;9.65;102031.28;5052367;28;51188;-49
2021/05/30 09:17:04;;;;;;;;;13.75;13.75;;;;;48.77;9.14;102024.94;5050954;28;51172;-48
2021/05/30 09:19:32;;;;;;;;;5.25;5.25;;;;;49.64;8.44;102028.72;5047990;28;51146;-52
2021/05/30 09:22:32;;;;;;;;;12.25;11.50;;;;;49.81;6.68;102026.06;5058008;28;51182;-54
2021/05/30 09:25:09;;;;;;;;;11.25;10.75;;;;;49.25;8.04;102028.19;5051637;28;51405;-52
2021/05/30 09:27:41;;;;;;;;;10.50;10.50;;;;;49.51;8.74;102026.44;5052823;28;51109;-50
2021/05/30 09:30:09;;;;;;;;;10.75;10.25;;;;;49.85;7.44;102028.34;5052391;28;51246;-52
2021/05/30 09:32:53;;;;;;;;;9.50;9.25;;;;;49.75;7.30;102022.06;5048552;28;51089;-53
2021/05/30 09:35:20;;;;;;;;;11.00;11.00;;;;;49.04;7.22;102025.00;5038210;28;54009;-53
2021/05/30 09:37:59;;;;;;;;;13.50;13.00;;;;;48.92;8.10;102027.97;5051677;28;50964;-52
2021/05/30 09:40:45;;;;;;;;;10.75;10.75;;;;;48.90;7.88;102019.00;5054720;28;51167;-55
2021/05/30 09:43:14;;;;;;;;;12.00;11.00;;;;;49.32;7.63;102016.56;5048515;27;51062;-54
2021/05/30 09:45:41;;;;;;;;;12.25;11.50;;;;;49.69;6.67;102017.25;5046353;28;52523;-48
2021/05/30 09:48:21;;;;;;;;;11.67;11.67;;;;;50.01;7.57;102019.19;5054476;28;50892;-52
2021/05/30 09:51:02;;;;;;;;;10.00;10.00;;;;;50.37;7.45;102011.69;5050898;28;51182;-51
2021/05/30 09:53:29;;;;;;;;;8.25;8.25;;;;;50.73;6.92;102008.59;5041388;28;51103;-52
2021/05/30 09:55:54;;;;;;;;;9.00;9.00;;;;;51.00;6.84;102014.78;5053241;28;51370;-50
2021/05/30 09:58:19;;;;;;;;;10.25;10.25;;;;;50.74;6.52;102010.31;5053633;28;51056;-52
2021/05/30 10:00:59;;;;;;;;;8.25;8.25;;;;;50.32;6.54;102000.28;5053250;28;51650;-52
2021/05/30 10:03:26;;;;;;;;;9.50;9.25;;;;;50.72;6.72;101990.28;5037496;28;51330;-50
2021/05/30 10:05:51;;;;;;;;;10.25;10.25;;;;;51.57;6.35;101998.16;5052927;28;53159;-50
2021/05/30 10:08:18;;;;;;;;;11.50;10.50;;;;;51.22;6.47;101987.41;5051629;28;51028;-52
2021/05/30 10:10:44;;;;;;;;;10.25;10.25;;;;;52.01;6.07;101999.47;5052754;28;51433;-49
2021/05/30 10:13:10;;;;;;;;;9.75;9.25;;;;;52.25;5.67;101994.81;5051576;28;51331;-50
2021/05/30 10:15:37;;;;;;;;;8.50;8.50;;;;;51.86;5.21;101991.97;5050555;28;52632;-54
2021/05/30 10:18:34;;;;;;;;;8.00;7.00;;;;;51.07;6.41;101988.13;5052966;28;51107;-51
2021/05/30 10:21:00;;;;;;;;;9.33;9.33;;;;;50.49;6.75;101979.97;5053209;28;51123;-53
2021/05/30 10:23:27;;;;;;;;;9.00;9.00;;;;;49.57;6.44;101976.16;5052068;28;51243;-51
2021/05/30 10:26:15;;;;;;;;;8.50;8.50;;;;;49.30;5.86;101974.44;5052633;28;51115;-52
2021/05/30 10:29:02;;;;;;;;;7.67;7.67;;;;;49.63;6.55;101980.09;5052653;28;51026;-52
2021/05/30 10:31:33;;;;;;;;;10.00;10.00;;;;;50.84;6.71;101987.16;5046973;28;51586;-51
2021/05/30 10:34:13;;;;;;;;;9.25;9.25;;;;;51.78;5.47;101980.91;5036963;28;51376;-52
2021/05/30 10:37:02;;;;;;;;;8.50;8.50;;;;;52.77;5.94;101982.03;5052310;28;52043;-52
2021/05/30 10:39:31;;;;;;;;;9.00;9.00;;;;;53.03;6.00;101974.31;5044187;28;51481;-51
2021/05/30 10:42:23;;;;;;;;;7.00;7.00;;;;;52.99;4.86;101978.53;5052754;28;51058;-53
2021/05/30 10:45:04;;;;;;;;;7.00;7.00;;;;;51.80;5.13;101977.97;5050970;28;51617;-50
2021/05/30 10:47:54;;;;;;;;;10.00;9.25;;;;;51.55;5.59;101978.13;5053837;28;52205;-52
2021/05/30 10:50:20;;;;;;;;;7.00;7.00;;;;;51.06;5.13;101975.34;5047951;28;51218;-51
2021/05/30 10:52:48;;;;;;;;;8.50;8.50;;;;;50.16;5.88;101968.91;5052430;28;51213;-51
2021/05/30 10:55:15;;;;;;;;;8.33;8.33;;;;;49.73;5.71;101960.69;5050176;28;51264;-52
2021/05/30 10:57:47;;;;;;;;;7.00;7.00;;;;;49.14;5.24;101959.56;5048842;28;51759;-50
2021/05/30 11:00:18;;;;;;;;;6.00;5.67;;;;;47.55;6.21;101950.94;5039968;28;51115;-50
2021/05/30 11:03:07;;;;;;;;;7.67;7.67;;;;;45.78;6.90;101950.13;5051978;28;51090;-51
2021/05/30 11:05:49;;;;;;;;;6.25;6.00;;;;;45.41;7.50;101945.25;5051258;28;50986;-51
2021/05/30 11:08:30;;;;;;;;;8.00;7.33;;;;;44.48;7.54;101945.97;5051988;28;51781;-53
2021/05/30 11:11:17;;;;;;;;;9.67;9.67;;;;;43.50;8.36;101952.16;5038340;28;52528;-49
2021/05/30 11:13:57;;;;;;;;;9.00;8.00;;;;;42.56;8.70;101931.25;5047557;28;51262;-51
2021/05/30 11:16:28;;;;;;;;;9.00;9.00;;;;;41.14;9.24;101931.56;5046968;28;50966;-49